Latest Weather Observations for Low Rocky Point

IDT60801

Issued at 3:02 am EDT Friday 9 December 2016 (issued every 30 minutes, with the page automatically refreshed every 10 minutes)

About weather observations | Map of weather stations | Latest weather observations for TAS | Other Formats
Station Details ID: 097080 Name: LOW ROCKY POINT Lat: -42.98 Lon: 145.50 Height: 34.0 m
Data from the previous 72 hours. | See also: Recent months at Low Rocky Point
Date/Time
EDT
Temp
°C
App
Temp
°C
Dew
Point
°C
Rel
Hum
%
Delta-T
°C
Wind Press
QNH
hPa
Press
MSL
hPa
Rain since
9am
mm
Dir  Spd
km/h
Gust
km/h
Spd
kts
Gust
kts
09/02:30am 9.1 -0.1 6.2 82 1.3 SW 44 63 24 34 1002.2 1002.2 10.2
09/02:00am 9.2 0.1 7.0 86 1.0 SW 44 67 24 36 1001.7 1001.7 10.2
09/01:37am 9.1 -0.2 7.4 89 0.8 SW 46 65 25 35 1001.4 1001.4 10.2
09/01:30am 9.3 0.6 7.7 90 0.8 SW 43 57 23 31 1001.3 1001.3 10.2
09/01:03am 9.1 0.5 8.3 95 0.4 SW 43 63 23 34 1000.8 1000.8 10.2
09/01:00am 9.1 0.4 8.5 96 0.3 SW 44 59 24 32 1000.7 1000.7 10.2
09/12:30am 8.6 -0.6 7.8 95 0.4 SW 46 67 25 36 1000.0 1000.0 9.8
09/12:06am 9.5 0.2 9.0 97 0.2 SW 48 67 26 36 999.1 999.1 9.8
09/12:00am 9.2 0.6 8.7 97 0.2 SW 44 61 24 33 999.0 999.0 9.8
 
Date/Time
EDT
Temp
°C
App
Temp
°C
Dew
Point
°C
Rel
Hum
%
Delta-T
°C
Wind Press
QNH
hPa
Press
MSL
hPa
Rain since
9am
mm
Dir  Spd
km/h
Gust
km/h
Spd
kts
Gust
kts
08/11:30pm 9.0 0.4 8.9 99 0.0 SW 44 65 24 35 998.5 998.5 9.8
08/11:00pm 9.3 0.8 9.2 99 0.0 SW 44 67 24 36 997.7 997.7 9.0
08/10:30pm 9.2 -0.1 9.1 99 0.0 SW 48 67 26 36 996.8 996.8 8.4
08/10:00pm 9.4 -0.2 9.3 99 0.0 SW 50 72 27 39 995.8 995.8 8.2
08/09:30pm 9.9 -0.4 9.8 99 0.1 SW 54 72 29 39 994.4 994.3 8.2
08/09:00pm 10.3 0.1 10.1 99 0.1 SW 54 72 29 39 992.9 992.9 7.4
08/08:58pm 10.2 0.0 10.1 99 0.1 SW 54 72 29 39 992.8 992.7 7.4
08/08:30pm 10.5 -1.0 10.3 99 0.1 SW 61 91 33 49 990.8 990.7 7.4
08/08:27pm 10.4 -1.5 10.2 99 0.1 SW 63 91 34 49 990.5 990.4 7.4
08/08:00pm 11.3 0.8 11.0 98 0.2 SW 57 80 31 43 988.5 988.4 6.4
08/07:44pm 12.1 4.4 11.5 96 0.3 WSW 43 69 23 37 987.1 987.0 6.2
08/07:43pm 12.4 4.8 11.8 96 0.3 WSW 43 69 23 37 987.1 987.0 6.0
08/07:30pm 13.4 6.8 12.5 94 0.5 W 39 48 21 26 986.2 986.1 4.8
08/07:00pm 13.7 7.5 12.6 93 0.6 W 37 44 20 24 984.3 984.3 4.8
08/06:58pm 13.8 8.0 12.7 93 0.6 W 35 43 19 23 984.2 984.2 4.8
08/06:30pm 13.5 6.4 12.2 92 0.7 WNW 41 50 22 27 983.1 983.1 4.8
08/06:00pm 14.3 6.4 12.7 90 0.9 NW 46 61 25 33 981.4 981.4 4.8
08/05:57pm 14.7 6.9 13.1 90 0.9 NW 46 61 25 33 981.2 981.2 4.8
08/05:30pm 14.2 3.5 12.8 91 0.8 NW 61 74 33 40 980.2 980.2 4.8
08/05:00pm 13.7 1.9 11.9 89 1.0 NNW 65 89 35 48 978.8 978.8 4.8
08/04:41pm 13.8 3.7 11.7 87 1.1 NNW 56 95 30 51 978.6 978.6 4.8
08/04:40pm 13.9 4.2 11.8 87 1.1 NNW 54 95 29 51 978.6 978.6 4.8
08/04:30pm 14.2 6.6 12.4 89 1.0 NNW 44 69 24 37 978.8 978.8 4.8
08/04:00pm 13.6 7.2 12.0 90 0.9 N 37 56 20 30 980.0 980.0 4.8
08/03:37pm 13.6 6.8 10.8 83 1.5 NNW 37 56 20 30 981.1 981.1 4.4
08/03:30pm 14.6 7.2 11.2 80 1.8 NNW 41 54 22 29 981.3 981.3 4.4
08/03:00pm 14.7 5.9 11.1 79 1.9 NNW 48 74 26 40 981.7 981.7 4.4
08/02:58pm 14.9 6.5 11.1 78 2.0 NNW 46 74 25 40 981.8 981.8 4.4
08/02:52pm 15.1 5.7 11.5 79 1.9 NNW 52 67 28 36 982.0 982.0 4.4
08/02:30pm 16.0 4.7 11.0 72 2.7 NNW 61 82 33 44 982.2 982.2 4.4
08/02:00pm 16.4 6.3 11.6 73 2.6 NNW 56 83 30 45 983.3 983.3 4.4
08/01:57pm 16.4 6.1 11.8 74 2.5 NNW 57 87 31 47 983.3 983.3 4.4
08/01:56pm 16.4 6.2 12.0 75 2.4 NNW 57 87 31 47 983.4 983.4 4.4
08/01:30pm 16.3 4.3 12.3 77 2.2 NNW 67 89 36 48 983.8 983.8 4.4
08/01:00pm 16.2 6.5 13.7 85 1.4 NNW 57 78 31 42 984.5 984.5 4.4
08/12:30pm 15.7 4.4 14.4 92 0.7 NNW 67 85 36 46 985.0 985.0 4.2
08/12:00pm 15.8 6.4 15.5 98 0.2 NNW 59 82 32 44 984.7 984.7 4.2
08/11:56am 16.0 8.0 15.7 98 0.2 NNW 52 82 28 44 984.8 984.8 4.2
08/11:53am 15.8 9.3 15.5 98 0.2 NNW 44 82 24 44 984.7 984.7 4.2
08/11:30am 16.4 10.6 16.1 98 0.2 N 41 65 22 35 985.0 985.0 4.2
08/11:29am 16.4 10.7 16.2 99 0.1 N 41 65 22 35 985.1 985.1 4.2
08/11:02am 16.0 12.6 15.8 99 0.1 N 28 46 15 25 985.6 985.5 4.0
08/11:00am 15.9 12.8 15.7 99 0.1 N 26 46 14 25 985.6 985.5 4.0
08/10:30am 14.8 14.6 14.6 99 0.1 NW 9 13 5 7 986.2 986.1 4.0
08/10:00am 14.3 11.8 14.1 99 0.1 N 20 32 11 17 986.7 986.6 3.0
08/09:30am 13.3 12.9 13.1 99 0.1 SE 7 9 4 5 987.9 987.8 2.0
08/09:00am 13.6 10.1 13.4 99 0.1 N 24 41 13 22 988.4 988.3 11.6
08/08:30am 12.9 9.2 12.7 99 0.1 NE 24 35 13 19 988.5 988.4 8.2
08/08:00am 12.5 8.2 12.2 98 0.2 NE 26 35 14 19 989.8 989.7 7.4
08/07:30am 12.2 9.9 11.6 96 0.3 NE 15 20 8 11 991.6 991.5 6.2
08/07:00am 12.0 10.3 11.2 95 0.4 ENE 11 15 6 8 993.1 993.1 4.6
08/06:30am 12.0 9.8 10.9 93 0.6 ENE 13 20 7 11 994.0 993.9 3.6
08/06:00am 12.8 10.3 11.2 90 0.9 NNW 15 22 8 12 995.2 995.2 2.0
08/05:30am 12.6 8.2 10.3 86 1.2 NNE 24 33 13 18 995.6 995.5 0.4
08/05:00am 12.4 7.9 10.1 86 1.2 NE 24 30 13 16 994.6 994.6 0.0
08/04:30am 12.6 8.1 10.1 85 1.3 NE 24 30 13 16 995.5 995.4 0.0
08/04:00am 13.6 9.0 10.9 84 1.4 NNE 26 32 14 17 997.2 997.2 0.0
08/03:30am 12.9 8.7 11.0 88 1.0 NE 24 30 13 16 997.4 997.4 0.0
08/03:00am 12.5 8.3 11.1 91 0.7 NE 24 28 13 15 998.0 998.0 0.0
08/02:30am 12.0 8.1 10.9 93 0.6 NE 22 28 12 15 999.2 999.2 0.0
08/02:00am 11.9 7.7 11.1 95 0.4 NE 24 28 13 15 1000.1 1000.1 0.0
08/01:30am 11.3 7.4 10.7 96 0.3 NE 22 28 12 15 1001.0 1001.0 0.0
08/01:00am 10.6 9.5 10.0 96 0.3 N 6 13 3 7 1002.0 1002.0 0.0
08/12:30am 11.0 8.7 10.4 96 0.3 NE 13 17 7 9 1003.2 1003.2 0.0
08/12:00am 11.0 9.0 10.2 95 0.4 ENE 11 13 6 7 1004.1 1004.1 0.0
 
Date/Time
EDT
Temp
°C
App
Temp
°C
Dew
Point
°C
Rel
Hum
%
Delta-T
°C
Wind Press
QNH
hPa
Press
MSL
hPa
Rain since
9am
mm
Dir  Spd
km/h
Gust
km/h
Spd
kts
Gust
kts
07/11:30pm 11.8 8.5 11.0 95 0.4 NNE 19 22 10 12 1004.7 1004.7 0.0
07/11:00pm 11.6 8.6 10.7 94 0.5 NNE 17 22 9 12 1005.7 1005.7 0.0
07/10:30pm 12.2 9.3 11.1 93 0.6 N 17 20 9 11 1006.7 1006.7 0.0
07/10:00pm 12.6 9.8 11.3 92 0.7 N 17 20 9 11 1007.1 1007.1 0.0
07/09:30pm 12.8 10.4 11.5 92 0.7 N 15 19 8 10 1006.9 1006.9 0.0
07/09:00pm 13.7 9.9 12.3 91 0.8 N 24 35 13 19 1006.9 1006.9 0.0
07/08:30pm 14.3 9.1 12.9 91 0.8 NNW 32 43 17 23 1007.4 1007.4 0.0
07/08:00pm 14.6 8.9 13.0 90 0.9 NNW 35 46 19 25 1007.9 1007.9 0.0
07/07:30pm 14.7 8.4 12.4 86 1.3 NNW 37 46 20 25 1008.2 1008.2 0.0
07/07:00pm 14.7 7.4 11.7 82 1.6 NNW 41 48 22 26 1008.5 1008.5 0.0
07/06:30pm 15.2 7.4 11.8 80 1.8 NNW 44 52 24 28 1008.8 1008.8 0.0
07/06:00pm 15.8 7.7 12.2 79 2.0 NW 46 57 25 31 1009.1 1009.1 0.0
07/05:30pm 16.1 8.1 12.5 79 2.0 NNW 46 57 25 31 1009.1 1009.1 0.0
07/05:00pm 16.1 7.7 12.3 78 2.1 NW 48 57 26 31 1009.3 1009.3 0.0
07/04:30pm 16.3 7.5 12.1 76 2.3 NW 50 61 27 33 1009.5 1009.5 0.0
07/04:00pm 16.1 7.3 12.1 77 2.2 NW 50 61 27 33 1009.5 1009.5 0.0
07/03:30pm 16.2 6.9 12.0 76 2.3 NW 52 67 28 36 1009.4 1009.4 0.0
07/03:00pm 16.6 8.2 12.2 75 2.4 NW 48 56 26 30 1009.4 1009.4 0.0
07/02:30pm 17.0 9.6 12.5 75 2.5 NW 43 50 23 27 1009.8 1009.8 0.0
07/02:00pm 16.6 9.4 11.9 74 2.6 NW 41 50 22 27 1010.0 1010.0 0.0
07/01:30pm 16.8 10.1 12.3 75 2.5 NW 39 46 21 25 1010.2 1010.2 0.0
07/01:00pm 16.3 9.7 11.2 72 2.7 NW 37 44 20 24 1010.4 1010.4 0.0
07/12:30pm 16.4 10.4 12.0 75 2.4 NW 35 43 19 23 1010.7 1010.7 0.0
07/12:00pm 16.1 10.1 12.1 77 2.2 NW 35 43 19 23 1010.9 1010.9 0.0
07/11:30am 16.0 10.6 12.7 81 1.8 NW 33 43 18 23 1010.9 1010.9 0.0
07/11:00am 15.5 10.3 12.8 84 1.5 NW 32 39 17 21 1010.9 1010.9 0.0
07/10:30am 15.0 9.7 13.2 89 1.0 NW 33 43 18 23 1010.7 1010.7 0.0
07/10:00am 14.3 9.1 13.3 94 0.6 NW 33 41 18 22 1010.8 1010.8 0.0
07/09:30am 13.6 8.3 13.1 97 0.3 WNW 33 41 18 22 1010.9 1010.9 0.0
07/09:00am 13.4 8.3 13.1 98 0.2 NW 32 39 17 21 1010.8 1010.8 1.8
07/08:30am 13.2 6.7 13.0 99 0.1 WNW 39 46 21 25 1010.7 1010.7 1.8
07/08:00am 13.2 6.7 13.0 99 0.1 NW 39 46 21 25 1010.3 1010.3 1.8
07/07:30am 13.1 5.6 12.8 98 0.2 NW 44 56 24 30 1010.0 1010.0 0.8
07/07:00am 13.3 6.3 12.5 95 0.4 NNW 41 54 22 29 1009.7 1009.7 0.0
07/06:30am 13.6 6.2 12.3 92 0.7 NNW 43 54 23 29 1009.5 1009.5 0.0
07/06:00am 13.8 6.2 12.4 91 0.8 NNW 44 54 24 29 1009.6 1009.6 0.0
07/05:30am 13.7 6.6 12.1 90 0.9 NNW 41 54 22 29 1009.4 1009.4 0.0
07/05:00am 13.8 6.3 12.0 89 1.0 NNW 43 54 23 29 1009.3 1009.3 0.0
07/04:30am 13.7 6.5 11.9 89 1.0 NNW 41 54 22 29 1009.2 1009.2 0.0
07/04:00am 13.5 6.2 11.4 87 1.1 NNW 41 52 22 28 1009.2 1009.2 0.0
07/03:30am 13.5 5.8 11.4 87 1.1 NNW 43 54 23 29 1009.5 1009.5 0.0
07/03:00am 13.5 5.2 11.4 87 1.1 NW 46 56 25 30 1009.8 1009.8 0.0
07/02:30am 13.4 4.6 11.1 86 1.2 NW 48 57 26 31 1010.2 1010.2 0.0
07/02:00am 13.5 5.5 11.2 86 1.2 NW 44 56 24 30 1010.4 1010.4 0.0
07/01:30am 13.2 5.1 10.7 85 1.3 NW 44 56 24 30 1010.4 1010.4 0.0
07/01:00am 13.4 5.3 10.8 84 1.4 NW 44 56 24 30 1010.5 1010.5 0.0
07/12:30am 13.3 5.5 11.0 86 1.2 NNW 43 56 23 30 1010.6 1010.6 0.0
07/12:00am 13.3 5.8 10.8 85 1.3 NNW 41 52 22 28 1010.7 1010.7 0.0
 
Date/Time
EDT
Temp
°C
App
Temp
°C
Dew
Point
°C
Rel
Hum
%
Delta-T
°C
Wind Press
QNH
hPa
Press
MSL
hPa
Rain since
9am
mm
Dir  Spd
km/h
Gust
km/h
Spd
kts
Gust
kts
06/11:30pm 13.1 6.0 10.8 86 1.2 NNW 39 48 21 26 1010.7 1010.7 0.0
06/11:00pm 13.1 5.3 11.0 87 1.1 NW 43 50 23 27 1010.8 1010.8 0.0
06/10:30pm 13.0 5.8 10.7 86 1.2 NW 39 46 21 25 1011.0 1011.0 0.0
06/10:00pm 13.0 6.6 10.7 86 1.2 NW 35 46 19 25 1011.1 1011.1 0.0
06/09:30pm 13.1 5.9 10.5 84 1.4 NW 39 48 21 26 1010.9 1010.9 0.0
06/09:00pm 13.2 5.6 10.4 83 1.5 NW 41 52 22 28 1010.7 1010.7 0.0
06/08:30pm 13.1 5.0 9.9 81 1.6 NW 43 54 23 29 1010.6 1010.6 0.0
06/08:00pm 13.4 5.2 9.8 79 1.9 NW 43 52 23 28 1010.4 1010.4 0.0
06/07:30pm 13.6 4.8 9.6 77 2.1 NW 46 56 25 30 1010.2 1010.2 0.0
06/07:00pm 13.9 6.1 9.7 76 2.2 NW 41 50 22 27 1010.1 1010.1 0.0
06/06:30pm 14.0 5.7 9.4 74 2.4 NW 43 52 23 28 1009.9 1009.9 0.0
06/06:00pm 14.6 6.0 9.0 69 2.9 NW 44 54 24 29 1009.8 1009.8 0.0
06/05:30pm 14.1 5.6 8.7 70 2.7 NW 43 54 23 29 1010.1 1010.1 0.0
06/05:00pm 14.2 6.1 8.6 69 2.8 NW 41 48 22 26 1010.2 1010.2 0.0
06/04:30pm 14.5 7.2 8.7 68 2.9 NW 37 46 20 25 1010.3 1010.3 0.0
06/04:00pm 15.8 8.2 9.2 65 3.4 NW 39 48 21 26 1010.4 1010.4 0.0
06/03:30pm 15.4 7.4 8.9 65 3.3 NW 41 48 22 26 1010.6 1010.6 0.0
06/03:00pm 15.3 7.6 8.5 64 3.5 NW 39 44 21 24 1010.6 1010.6 0.0
06/02:30pm 15.0 8.2 7.8 62 3.6 NW 33 44 18 24 1010.7 1010.7 0.0
06/02:00pm 15.9 9.1 7.7 58 4.1 NW 33 43 18 23 1010.8 1010.8 0.0
06/01:30pm 15.8 9.1 8.3 61 3.8 NW 33 43 18 23 1011.0 1011.0 0.0
06/01:00pm 15.6 8.8 9.1 65 3.3 NW 35 43 19 23 1011.1 1011.1 0.0
06/12:30pm 15.6 9.3 9.1 65 3.3 NW 32 39 17 21 1011.1 1011.1 0.0
06/12:00pm 15.8 9.4 9.2 65 3.4 NW 33 41 18 22 1011.1 1011.1 0.0
06/11:30am 14.7 9.0 8.4 66 3.2 NW 28 37 15 20 1011.0 1011.0 0.0
06/11:00am 14.0 8.8 8.8 71 2.6 NW 26 32 14 17 1010.9 1010.9 0.0
06/10:30am 12.7 5.8 8.8 77 2.0 NW 35 46 19 25 1011.1 1011.1 0.0
06/10:08am 11.9 6.1 7.8 76 2.0 NW 28 48 15 26 1011.0 1011.0 0.0
06/10:00am 12.8 7.9 8.5 75 2.1 NW 24 32 13 17 1011.0 1011.0 0.0
06/09:30am 12.5 6.8 8.2 75 2.1 W 28 35 15 19 1011.2 1011.2 0.0
06/09:00am 12.8 7.7 7.5 70 2.6 NW 24 30 13 16 1011.1 1011.1 0.2
06/08:30am 12.7 7.7 8.0 73 2.3 NW 24 32 13 17 1011.1 1011.1 0.2
06/08:00am 12.4 7.3 7.7 73 2.3 NW 24 35 13 19 1011.1 1011.1 0.2
06/07:30am 12.2 6.3 7.5 73 2.3 NW 28 35 15 19 1011.0 1011.0 0.2
06/07:00am 12.3 7.1 7.2 71 2.5 NW 24 32 13 17 1011.0 1011.0 0.2
06/06:30am 12.1 6.8 6.6 69 2.6 NW 24 28 13 15 1011.3 1011.3 0.2
06/06:00am 12.0 6.1 5.9 66 2.9 WNW 26 32 14 17 1011.2 1011.2 0.2
06/05:30am 12.0 5.7 5.9 66 2.9 WNW 28 33 15 18 1011.4 1011.4 0.2
06/05:00am 12.0 5.8 6.1 67 2.8 WNW 28 37 15 20 1011.3 1011.3 0.2
06/04:30am 12.0 6.0 7.1 72 2.4 WNW 28 35 15 19 1011.1 1011.1 0.2
06/04:00am 12.0 7.2 5.4 64 3.1 NW 20 28 11 15 1010.6 1010.6 0.2
06/03:30am 11.9 7.0 5.3 64 3.0 WNW 20 28 11 15 1010.2 1010.2 0.2

Other Formats:

Comma delimited format used in spreadsheet applications
http://www.bom.gov.au/fwo/IDT60801/IDT60801.95961.axf

JavaScript Object Notation format (JSON) in row-major order
http://www.bom.gov.au/fwo/IDT60801/IDT60801.95961.json